Time;durP1;ratioP1;P1;durP2;ratioP2;P2;SDS_P1;SDS_P2;PMS_P1;PMS_P2;Temp;Humidity;BMP_temperature;BMP_pressure;BME280_temperature;BME280_humidity;BME280_pressure;Samples;Min_cycle;Max_cycle;Signal;HPM_P1;HPM_P2
2021/06/05 08:18:36;;;;;;;85.78;38.22;;;;;;;20.26;67.17;101814.44;5156652;27;227621;-56
2021/06/05 08:21:15;;;;;;;87.80;41.30;;;;;;;21.43;63.81;101812.97;5152022;27;20078;-56
2021/06/05 08:23:40;;;;;;;86.15;36.60;;;;;;;22.46;60.69;101810.88;5153733;27;20359;-56
2021/06/05 08:26:07;;;;;;;78.70;38.42;;;;;;;23.23;59.03;101800.63;5152793;27;20027;-58
2021/06/05 08:28:33;;;;;;;74.80;36.78;;;;;;;23.82;57.61;101804.19;5152004;27;20015;-60
2021/06/05 08:31:02;;;;;;;76.72;37.53;;;;;;;24.27;55.74;101806.63;5152562;27;20027;-59
2021/06/05 08:33:28;;;;;;;76.63;38.70;;;;;;;24.66;55.37;101798.81;5152823;27;20019;-59
2021/06/05 08:35:54;;;;;;;73.95;36.10;;;;;;;24.95;54.60;101791.47;5152744;27;20423;-60
2021/06/05 08:38:22;;;;;;;73.70;37.88;;;;;;;25.19;53.91;101799.22;5152325;27;20034;-60
2021/06/05 08:41:22;;;;;;;69.22;36.25;;;;;;;25.50;53.49;101796.91;5152615;27;20015;-60
2021/06/05 08:44:02;;;;;;;79.35;37.40;;;;;;;25.70;52.95;101795.13;5127853;27;20387;-61
2021/06/05 08:46:31;;;;;;;74.45;35.35;;;;;;;25.85;52.32;101793.06;5152175;27;20019;-61
2021/06/05 08:48:58;;;;;;;69.60;35.28;;;;;;;25.97;52.22;101810.63;5151016;27;20421;-61
2021/06/05 08:51:38;;;;;;;77.78;36.08;;;;;;;26.06;51.83;101808.56;5152450;27;20083;-62
2021/06/05 08:54:30;;;;;;;73.00;35.70;;;;;;;26.11;52.15;101810.66;5151953;27;20072;-62
2021/06/05 08:56:58;;;;;;;70.22;33.25;;;;;;;26.13;51.80;101808.59;5152094;27;20102;-62
2021/06/05 08:59:24;;;;;;;72.97;34.65;;;;;;;26.16;51.90;101813.69;5151004;27;20416;-62
2021/06/05 09:01:50;;;;;;;76.00;38.17;;;;;;;26.19;51.43;101813.25;5150734;27;20052;-62
2021/06/05 09:04:19;;;;;;;71.15;34.85;;;;;;;26.21;51.30;101811.16;5151319;27;20030;-63
2021/06/05 09:06:53;;;;;;;66.65;33.55;;;;;;;26.23;51.47;101811.81;5152159;27;20463;-62
2021/06/05 09:09:23;;;;;;;68.00;33.05;;;;;;;26.22;50.86;101819.19;5152007;27;20033;-62
2021/06/05 09:11:49;;;;;;;62.95;32.55;;;;;;;26.24;51.22;101813.50;5151969;27;20074;-63
2021/06/05 09:14:14;;;;;;;69.65;34.30;;;;;;;26.28;51.15;101820.25;5151244;27;20042;-62
2021/06/05 09:16:47;;;;;;;68.35;33.65;;;;;;;26.29;51.06;101813.72;5151780;27;20023;-63
2021/06/05 09:19:21;;;;;;;71.10;33.40;;;;;;;26.29;50.75;101816.47;5151256;27;20023;-62
2021/06/05 09:21:53;;;;;;;68.03;32.50;;;;;;;26.27;50.42;101822.16;5151870;27;20431;-63
2021/06/05 09:24:30;;;;;;;68.38;32.17;;;;;;;26.24;50.70;101817.09;5150209;27;20109;-62
2021/06/05 09:27:13;;;;;;;65.40;30.13;;;;;;;26.20;50.38;101823.19;5152223;27;20030;-62
2021/06/05 09:29:50;;;;;;;61.13;31.88;;;;;;;26.20;50.88;101821.31;5139716;27;20027;-63
2021/06/05 09:32:26;;;;;;;66.95;30.90;;;;;;;26.21;50.27;101811.16;5137724;27;20031;-62
2021/06/05 09:34:57;;;;;;;68.93;31.58;;;;;;;26.30;49.87;101820.91;5137993;27;20023;-62
2021/06/05 09:37:48;;;;;;;61.05;30.02;;;;;;;26.32;50.39;101818.81;5136702;27;20011;-62
2021/06/05 09:40:19;;;;;;;63.03;31.52;;;;;;;26.36;49.92;101814.56;5137612;27;20027;-63
2021/06/05 09:42:56;;;;;;;64.10;27.38;;;;;;;26.39;49.94;101830.63;5137550;27;20075;-62
2021/06/05 09:45:33;;;;;;;66.95;30.15;;;;;;;26.41;50.10;101828.56;5137482;27;20042;-62
2021/06/05 09:48:20;;;;;;;58.80;29.20;;;;;;;26.46;49.38;101834.25;5137241;27;20483;-63
2021/06/05 09:50:47;;;;;;;60.88;28.60;;;;;;;26.45;49.87;101835.31;5137147;27;20029;-62
2021/06/05 09:53:13;;;;;;;71.40;30.23;;;;;;;26.44;49.38;101833.59;5137087;27;20037;-62
2021/06/05 09:55:39;;;;;;;61.78;32.03;;;;;;;26.41;49.77;101840.38;5136038;27;20051;-62
2021/06/05 09:58:09;;;;;;;63.40;30.00;;;;;;;26.39;49.63;101831.50;5135580;27;20487;-62
2021/06/05 10:00:38;;;;;;;61.20;30.15;;;;;;;26.38;49.99;101834.47;5137028;27;20059;-62
2021/06/05 10:03:32;;;;;;;62.63;29.67;;;;;;;26.35;49.48;101834.88;5137188;27;20120;-62
2021/06/05 10:05:58;;;;;;;66.47;30.50;;;;;;;26.34;49.46;101844.16;5136940;27;20091;-62
2021/06/05 10:08:26;;;;;;;63.75;30.08;;;;;;;26.31;49.60;101834.44;5136033;27;20116;-63
2021/06/05 10:10:58;;;;;;;60.30;28.40;;;;;;;26.29;49.39;101841.19;5136771;27;20023;-62
2021/06/05 10:13:26;;;;;;;62.22;29.48;;;;;;;26.26;49.44;101844.34;5135802;27;20027;-62
2021/06/05 10:15:56;;;;;;;60.97;29.83;;;;;;;26.23;49.52;101839.28;5137045;27;20035;-62
2021/06/05 10:18:25;;;;;;;64.78;28.23;;;;;;;26.20;49.40;101853.41;5135132;27;20089;-62
2021/06/05 10:20:58;;;;;;;59.65;28.35;;;;;;;26.15;50.11;101853.19;5136854;27;20046;-62
2021/06/05 10:23:28;;;;;;;53.58;28.02;;;;;;;26.10;49.68;101853.78;5136316;27;20019;-62
2021/06/05 10:25:59;;;;;;;54.50;27.08;;;;;;;26.09;49.60;101862.22;5135903;27;20056;-62
2021/06/05 10:28:32;;;;;;;59.85;27.58;;;;;;;26.05;49.99;101861.78;5135225;27;20019;-62
2021/06/05 10:31:00;;;;;;;56.83;27.70;;;;;;;26.02;49.99;101863.03;5135137;27;20034;-62
2021/06/05 10:33:53;;;;;;;61.00;28.10;;;;;;;26.02;49.74;101868.53;5135347;27;20095;-62
2021/06/05 10:36:21;;;;;;;55.08;28.30;;;;;;;25.95;49.97;101867.69;5135340;27;20474;-62
2021/06/05 10:38:50;;;;;;;50.47;25.80;;;;;;;25.91;49.71;101874.63;5136488;27;20059;-62
2021/06/05 10:41:19;;;;;;;46.90;25.52;;;;;;;25.87;49.56;101870.59;5135374;27;20414;-62
2021/06/05 10:43:46;;;;;;;46.83;26.35;;;;;;;25.84;49.95;101873.75;5136658;27;20346;-62
2021/06/05 10:46:43;;;;;;;49.70;26.30;;;;;;;25.83;49.96;101871.19;5135894;27;20019;-62
2021/06/05 10:49:40;;;;;;;57.00;27.00;;;;;;;25.83;50.03;101874.78;5081932;27;20054;-62
2021/06/05 10:52:24;;;;;;;49.28;25.15;;;;;;;25.85;49.81;101878.16;5135366;27;20035;-62
2021/06/05 10:55:01;;;;;;;44.10;23.73;;;;;;;25.86;50.08;101877.13;5135145;27;20023;-62
2021/06/05 10:57:32;;;;;;;55.22;26.55;;;;;;;25.84;50.18;101879.25;5117494;27;20030;-62
2021/06/05 11:00:09;;;;;;;48.78;24.80;;;;;;;25.83;50.04;101877.53;5136331;27;20045;-62
2021/06/05 11:02:45;;;;;;;57.92;26.65;;;;;;;25.81;50.07;101873.31;5134627;27;20164;-62
2021/06/05 11:05:16;;;;;;;56.67;27.60;;;;;;;25.79;49.88;101879.00;5134807;27;20026;-62
2021/06/05 11:07:43;;;;;;;60.13;26.83;;;;;;;25.77;50.03;101886.56;5135989;27;20103;-62
2021/06/05 11:10:09;;;;;;;58.50;27.70;;;;;;;25.73;49.72;101885.31;5135651;27;20049;-62
2021/06/05 11:12:34;;;;;;;49.85;26.85;;;;;;;25.73;50.26;101887.19;5134454;27;20023;-62
2021/06/05 11:15:00;;;;;;;57.63;27.73;;;;;;;25.73;50.20;101881.72;5135790;27;20491;-62
2021/06/05 11:17:32;;;;;;;57.53;26.58;;;;;;;25.73;49.96;101879.81;5134202;27;20066;-62
2021/06/05 11:20:07;;;;;;;56.35;24.92;;;;;;;25.75;49.85;101882.34;5134557;27;20386;-62
2021/06/05 11:22:48;;;;;;;47.35;24.60;;;;;;;25.74;49.74;101886.16;5135930;27;20359;-62
2021/06/05 11:25:16;;;;;;;49.72;25.40;;;;;;;25.69;50.20;101884.00;5135842;27;20078;-62
2021/06/05 11:27:41;;;;;;;56.08;27.10;;;;;;;25.68;50.11;101885.06;5135298;27;20099;-62
2021/06/05 11:30:07;;;;;;;53.50;25.30;;;;;;;25.69;49.70;101888.63;5135523;27;20444;-62
2021/06/05 11:33:09;;;;;;;52.95;26.10;;;;;;;25.69;49.88;101884.00;5135144;27;20029;-62
2021/06/05 11:35:54;;;;;;;53.33;27.02;;;;;;;25.69;49.71;101889.50;5134495;27;20019;-62
2021/06/05 11:38:19;;;;;;;47.70;25.25;;;;;;;25.70;49.73;101891.19;5133985;27;20097;-62
2021/06/05 11:41:07;;;;;;;49.47;26.65;;;;;;;25.71;50.11;101887.38;5135469;27;20070;-62
2021/06/05 11:43:32;;;;;;;51.78;26.13;;;;;;;25.71;50.02;101887.38;5133999;27;20068;-62
2021/06/05 11:46:08;;;;;;;50.17;25.55;;;;;;;25.71;49.83;101890.13;5135051;27;20023;-62
2021/06/05 11:48:48;;;;;;;57.70;25.40;;;;;;;25.69;50.09;101894.97;5135278;27;20460;-62
2021/06/05 11:51:20;;;;;;;54.15;26.27;;;;;;;25.69;50.23;101894.13;5134730;27;20026;-62
2021/06/05 11:53:53;;;;;;;49.63;25.63;;;;;;;25.68;49.89;101893.31;5134888;27;20030;-62
2021/06/05 11:56:25;;;;;;;52.90;25.65;;;;;;;25.70;50.32;101890.34;5134434;27;20026;-62
2021/06/05 11:58:50;;;;;;;57.13;25.30;;;;;;;25.69;50.13;101889.50;5135446;27;20106;-62
2021/06/05 12:01:26;;;;;;;46.60;23.65;;;;;;;25.72;50.49;101889.09;5135293;27;20027;-62
2021/06/05 12:03:55;;;;;;;50.22;24.52;;;;;;;25.74;50.23;101891.66;5135178;27;20015;-62
2021/06/05 12:06:29;;;;;;;46.88;23.92;;;;;;;25.75;50.45;101894.19;5134955;27;20079;-62
2021/06/05 12:09:11;;;;;;;46.42;21.95;;;;;;;25.79;50.39;101895.47;5135052;27;20015;-62
2021/06/05 12:11:48;;;;;;;;;;;;;;;25.80;50.28;101897.16;5135219;27;20356;-62
2021/06/05 12:14:26;;;;;;;36.17;19.05;;;;;;;25.76;50.03;101892.28;5133536;27;19908;-62
2021/06/05 12:16:57;;;;;;;41.78;19.95;;;;;;;25.74;49.97;101897.97;5134552;27;20034;-62
2021/06/05 12:19:32;;;;;;;38.63;19.10;;;;;;;25.71;50.45;101892.88;5133545;27;20038;-62
2021/06/05 12:22:17;;;;;;;34.53;18.50;;;;;;;25.68;50.21;101892.47;5133750;28;20094;-62
2021/06/05 12:24:51;;;;;;;30.23;17.75;;;;;;;25.67;50.63;101891.59;5133701;28;20026;-62
2021/06/05 12:27:37;;;;;;;37.05;17.70;;;;;;;25.65;50.78;101892.84;5134159;28;20409;-62
2021/06/05 12:30:20;;;;;;;32.15;17.20;;;;;;;25.65;50.71;101887.38;5133630;28;20024;-62
2021/06/05 12:32:58;;;;;;;;;;;;;;;25.64;50.19;101893.91;5135430;27;20025;-62
2021/06/05 12:35:29;;;;;;;38.20;17.67;;;;;;;25.60;50.26;101890.69;5134735;27;20344;-62
2021/06/05 12:37:57;;;;;;;37.47;17.38;;;;;;;25.63;50.25;101900.47;5134690;27;20015;-63
2021/06/05 12:40:47;;;;;;;32.10;16.52;;;;;;;25.65;50.56;101892.84;5135343;27;20032;-62
2021/06/05 12:43:16;;;;;;;34.75;16.63;;;;;;;25.66;50.30;101894.53;5133914;28;20019;-63
2021/06/05 12:45:42;;;;;;;38.20;17.20;;;;;;;25.67;50.51;101896.25;5133466;28;20028;-62
2021/06/05 12:48:10;;;;;;;34.50;17.23;;;;;;;25.67;50.82;101891.59;5133273;28;20019;-63
2021/06/05 12:50:37;;;;;;;36.53;17.35;;;;;;;25.64;50.06;101891.16;5133113;28;20023;-63
2021/06/05 12:53:06;;;;;;;39.40;18.42;;;;;;;25.66;50.81;101894.53;5116493;28;20029;-63
2021/06/05 12:55:43;;;;;;;41.25;17.73;;;;;;;25.64;50.93;101892.00;5133702;28;20399;-62
2021/06/05 12:58:14;;;;;;;40.28;19.85;;;;;;;25.62;50.97;101887.78;5134769;27;20110;-63
2021/06/05 13:00:46;;;;;;;38.95;20.58;;;;;;;25.58;50.75;101890.06;5133164;28;20035;-63
2021/06/05 13:03:12;;;;;;;35.97;20.00;;;;;;;25.55;50.55;101887.72;5133283;27;20022;-62
2021/06/05 13:05:39;;;;;;;39.10;21.08;;;;;;;25.55;50.05;101887.72;5138514;27;20468;-63
2021/06/05 13:08:19;;;;;;;42.40;20.90;;;;;;;25.52;50.41;101885.38;5136899;27;20109;-62
2021/06/05 13:10:50;;;;;;;42.05;21.73;;;;;;;25.51;50.88;101886.44;5136678;27;20050;-63
2021/06/05 13:13:22;;;;;;;41.53;22.20;;;;;;;25.50;50.73;101890.22;5137818;27;20114;-63
2021/06/05 13:16:10;;;;;;;42.00;23.05;;;;;;;25.52;50.85;101890.84;5119673;27;20027;-63
2021/06/05 13:18:37;;;;;;;41.92;22.75;;;;;;;25.51;50.73;101891.94;5127172;27;20055;-62
2021/06/05 13:21:27;;;;;;;48.10;23.95;;;;;;;25.52;50.49;101896.34;5138786;27;20365;-62
2021/06/05 13:24:19;;;;;;;41.30;23.20;;;;;;;25.49;50.35;101898.66;5130668;27;20499;-62
2021/06/05 13:26:50;;;;;;;48.05;23.35;;;;;;;25.46;50.54;101903.44;5138597;27;20460;-62
2021/06/05 13:29:27;;;;;;;43.20;23.13;;;;;;;25.47;50.52;101896.09;5139512;27;20098;-62
2021/06/05 13:31:55;;;;;;;44.10;25.13;;;;;;;25.42;50.95;101893.09;5138129;27;20379;-63
2021/06/05 13:34:27;;;;;;;46.42;24.00;;;;;;;25.39;50.73;101898.97;5137487;27;20152;-62
2021/06/05 13:37:22;;;;;;;53.40;24.70;;;;;;;25.42;50.66;101890.34;5137430;27;20415;-62
2021/06/05 13:39:51;;;;;;;48.40;24.75;;;;;;;25.41;51.07;101896.88;5109842;27;20038;-62
2021/06/05 13:42:17;;;;;;;51.25;25.38;;;;;;;25.39;50.90;101896.22;5119396;27;20467;-62
2021/06/05 13:44:42;;;;;;;46.22;25.17;;;;;;;25.40;50.63;101901.50;5119417;27;20417;-62
2021/06/05 13:47:09;;;;;;;46.70;23.90;;;;;;;25.41;50.59;101902.34;5138182;27;20031;-62
2021/06/05 13:49:35;;;;;;;44.50;25.42;;;;;;;25.42;51.10;101901.31;5136594;27;20031;-62
2021/06/05 13:52:12;;;;;;;45.17;24.83;;;;;;;25.45;50.93;101903.66;5137907;27;20027;-62
2021/06/05 13:54:37;;;;;;;40.00;22.48;;;;;;;25.42;50.67;101906.81;5136482;27;20027;-62
2021/06/05 13:57:03;;;;;;;48.95;26.02;;;;;;;25.39;50.73;101898.97;5137741;27;20023;-63
2021/06/05 13:59:28;;;;;;;44.13;24.33;;;;;;;25.37;50.77;101901.94;5136464;27;20034;-61
2021/06/05 14:01:54;;;;;;;47.80;25.75;;;;;;;25.36;50.98;101910.34;5137203;27;20035;-62
2021/06/05 14:04:19;;;;;;;44.83;25.25;;;;;;;25.32;50.66;101898.91;5137558;27;20379;-62
2021/06/05 14:06:45;;;;;;;50.70;26.55;;;;;;;25.31;50.60;101907.34;5137074;27;20086;-62
2021/06/05 14:09:12;;;;;;;47.72;26.38;;;;;;;25.31;50.97;101907.34;5137119;27;20102;-62
2021/06/05 14:11:37;;;;;;;46.83;24.67;;;;;;;25.25;50.88;101894.44;5136294;27;20023;-61
2021/06/05 14:14:04;;;;;;;47.30;25.90;;;;;;;25.31;50.81;101912.84;5118629;27;20023;-62
2021/06/05 14:16:29;;;;;;;48.38;26.17;;;;;;;25.30;50.87;101906.50;5135764;27;20106;-62
2021/06/05 14:18:55;;;;;;;52.90;26.83;;;;;;;25.30;51.21;101906.50;5135597;27;20129;-62
2021/06/05 14:21:21;;;;;;;50.58;27.10;;;;;;;25.30;50.96;101900.16;5119087;27;20122;-62
2021/06/05 14:23:47;;;;;;;52.50;27.10;;;;;;;25.31;50.71;101904.63;5118459;27;20027;-62
2021/06/05 14:26:13;;;;;;;50.38;26.90;;;;;;;25.33;50.95;101908.00;5136818;27;20110;-62
2021/06/05 14:28:40;;;;;;;46.53;25.25;;;;;;;25.33;50.83;101906.13;5135573;27;20022;-62
2021/06/05 14:31:05;;;;;;;47.53;26.10;;;;;;;25.34;51.13;101909.72;5135308;27;20019;-62
2021/06/05 14:33:31;;;;;;;43.78;22.90;;;;;;;25.34;50.62;101906.97;5117843;27;20360;-62
2021/06/05 14:35:58;;;;;;;44.72;24.00;;;;;;;25.33;51.03;101910.75;5136349;27;20463;-62
2021/06/05 14:38:25;;;;;;;48.22;25.27;;;;;;;25.35;50.79;101919.63;5136362;27;20031;-62
2021/06/05 14:40:52;;;;;;;52.80;25.73;;;;;;;25.32;51.07;101917.31;5117839;27;20026;-62
2021/06/05 14:43:18;;;;;;;49.47;25.30;;;;;;;25.30;51.04;101922.13;5117808;27;20029;-62
2021/06/05 14:45:48;;;;;;;49.13;26.48;;;;;;;25.33;50.57;101925.31;5136361;27;20023;-62
2021/06/05 14:48:14;;;;;;;52.53;28.10;;;;;;;25.34;51.10;101920.69;5136207;27;20037;-61
2021/06/05 14:50:41;;;;;;;52.08;26.55;;;;;;;25.32;50.60;101920.03;5136347;27;20031;-62
2021/06/05 14:53:08;;;;;;;54.65;27.23;;;;;;;25.34;50.45;101923.44;5136410;27;20070;-62
2021/06/05 14:55:40;;;;;;;49.80;27.30;;;;;;;25.37;50.42;101923.03;5135232;27;20035;-62
2021/06/05 14:58:06;;;;;;;48.72;25.70;;;;;;;25.42;50.62;101920.53;5135110;27;20114;-62
2021/06/05 15:00:31;;;;;;;51.97;26.73;;;;;;;25.50;50.16;101917.66;5135185;27;20063;-62
2021/06/05 15:02:57;;;;;;;54.38;27.83;;;;;;;25.60;50.26;101914.56;5136357;27;20055;-62
2021/06/05 15:05:27;;;;;;;48.95;26.83;;;;;;;25.69;50.39;101911.44;5137397;27;20511;-62
2021/06/05 15:07:53;;;;;;;46.97;25.48;;;;;;;25.74;50.16;101903.44;5135375;27;20119;-62
2021/06/05 15:10:19;;;;;;;48.83;26.85;;;;;;;25.88;49.87;101909.91;5137436;27;20110;-61
2021/06/05 15:12:45;;;;;;;42.70;25.95;;;;;;;25.92;50.16;101905.66;5117610;27;20023;-62
2021/06/05 15:15:12;;;;;;;46.08;25.27;;;;;;;25.88;50.24;101910.72;5134409;27;20042;-62
2021/06/05 15:17:37;;;;;;;42.30;25.25;;;;;;;25.81;50.45;101904.34;5135219;27;20043;-61
2021/06/05 15:20:05;;;;;;;49.90;24.80;;;;;;;25.81;50.08;101907.09;5136472;27;20023;-62
2021/06/05 15:22:31;;;;;;;48.90;25.60;;;;;;;25.80;49.93;101908.13;5134440;27;20112;-62
2021/06/05 15:24:57;;;;;;;43.15;24.30;;;;;;;25.78;49.89;101907.50;5136365;27;20406;-62
2021/06/05 15:27:22;;;;;;;52.88;24.88;;;;;;;25.73;50.00;101906.41;5134585;27;20369;-62
2021/06/05 15:29:47;;;;;;;43.90;24.30;;;;;;;25.70;49.96;101907.66;5135622;27;20023;-62
2021/06/05 15:32:13;;;;;;;49.35;23.38;;;;;;;25.66;49.89;101905.50;5135556;27;20456;-62
2021/06/05 15:34:38;;;;;;;45.25;25.08;;;;;;;25.68;50.63;101909.78;5135546;27;20391;-62
2021/06/05 15:37:04;;;;;;;47.90;24.17;;;;;;;25.68;50.22;101911.66;5135621;27;20035;-62
2021/06/05 15:39:29;;;;;;;41.85;22.60;;;;;;;25.65;49.99;101903.84;5135479;27;20056;-62
2021/06/05 15:41:54;;;;;;;41.75;23.73;;;;;;;25.68;50.22;101909.78;5116587;27;20476;-62
2021/06/05 15:44:20;;;;;;;41.63;22.75;;;;;;;25.72;50.04;101912.94;5116673;27;20023;-62
2021/06/05 15:46:45;;;;;;;33.42;19.83;;;;;;;25.77;50.28;101914.03;5134486;27;20019;-62
2021/06/05 15:49:11;;;;;;;31.25;17.83;;;;;;;25.79;50.19;101909.22;5135112;27;20103;-62
2021/06/05 15:51:40;;;;;;;30.17;16.45;;;;;;;25.79;49.81;101911.97;5133859;27;20114;-62
2021/06/05 15:54:09;;;;;;;30.58;17.15;;;;;;;25.85;49.69;101911.13;5135014;27;20075;-62
2021/06/05 15:56:35;;;;;;;29.48;17.02;;;;;;;25.85;50.26;101910.28;5134684;27;20023;-61
2021/06/05 15:59:02;;;;;;;26.00;16.80;;;;;;;25.84;50.39;101911.34;5135554;27;20019;-62
2021/06/05 16:01:28;;;;;;;33.00;17.52;;;;;;;25.86;49.94;101907.34;5134863;27;20117;-62
2021/06/05 16:04:00;;;;;;;26.60;16.65;;;;;;;25.90;49.77;101913.28;5135595;27;20042;-61
2021/06/05 16:06:25;;;;;;;26.02;16.83;;;;;;;25.88;49.53;101910.72;5134453;27;20022;-62
2021/06/05 16:08:52;;;;;;;29.98;17.48;;;;;;;25.93;49.66;101913.72;5116203;28;20383;-62
2021/06/05 16:11:17;;;;;;;27.98;17.30;;;;;;;25.90;49.46;101913.28;5134736;27;20494;-63
2021/06/05 16:13:43;;;;;;;27.73;17.20;;;;;;;25.89;49.67;101920.66;5134419;27;20117;-62
2021/06/05 16:16:12;;;;;;;32.65;18.20;;;;;;;25.86;49.43;101918.31;5134912;27;20031;-62
2021/06/05 16:18:38;;;;;;;30.95;19.85;;;;;;;25.83;49.51;101924.22;5133487;27;20039;-62
2021/06/05 16:21:14;;;;;;;27.02;17.95;;;;;;;25.83;49.09;101924.22;5135083;27;20108;-62
2021/06/05 16:23:40;;;;;;;25.40;16.08;;;;;;;25.88;49.72;101932.69;5116274;28;20447;-62
2021/06/05 16:26:08;;;;;;;27.90;16.73;;;;;;;25.89;49.02;101934.38;5133259;28;20061;-61
2021/06/05 16:28:34;;;;;;;27.88;16.30;;;;;;;25.89;49.18;101933.53;5134630;27;20034;-62
2021/06/05 16:30:59;;;;;;;30.60;17.95;;;;;;;25.92;49.12;101934.00;5133903;28;20028;-62
2021/06/05 16:33:25;;;;;;;28.98;16.30;;;;;;;25.91;48.69;101940.53;5133385;28;20069;-61
2021/06/05 16:35:55;;;;;;;26.73;16.17;;;;;;;25.89;49.28;101941.78;5133003;28;20032;-61
2021/06/05 16:38:21;;;;;;;25.75;15.85;;;;;;;25.84;49.03;101947.03;5133665;27;20528;-61
2021/06/05 16:40:49;;;;;;;27.35;16.80;;;;;;;25.82;49.12;101955.47;5138746;27;20471;-61
2021/06/05 16:43:17;;;;;;;31.10;16.92;;;;;;;25.81;48.97;101958.41;5139149;27;20023;-61
2021/06/05 16:45:42;;;;;;;31.98;17.52;;;;;;;25.76;48.93;101961.78;5138957;27;20103;-61
2021/06/05 16:48:08;;;;;;;31.70;18.05;;;;;;;25.73;49.21;101953.94;5137316;27;20098;-61
2021/06/05 16:50:37;;;;;;;37.72;17.08;;;;;;;25.71;49.00;101953.28;5137254;27;20034;-61
2021/06/05 16:53:04;;;;;;;26.77;16.90;;;;;;;25.72;49.20;101954.97;5138504;27;20027;-61
2021/06/05 16:55:30;;;;;;;29.15;17.77;;;;;;;25.73;49.13;101951.19;5138358;27;20023;-61
2021/06/05 16:57:56;;;;;;;37.25;19.92;;;;;;;25.70;48.79;101954.34;5138597;27;20023;-61
2021/06/05 17:00:29;;;;;;;30.40;17.92;;;;;;;25.66;49.21;101950.28;5136716;27;20528;-61
2021/06/05 17:03:00;;;;;;;31.83;19.20;;;;;;;25.64;48.85;101952.38;5141158;27;20050;-61
2021/06/05 17:05:27;;;;;;;35.58;19.45;;;;;;;25.63;48.83;101953.44;5136646;27;20050;-61
2021/06/05 17:07:52;;;;;;;30.58;19.30;;;;;;;25.63;48.76;101953.44;5138603;27;20031;-61
2021/06/05 17:10:20;;;;;;;32.13;20.08;;;;;;;25.64;49.27;101957.88;5138447;27;20039;-61
2021/06/05 17:12:46;;;;;;;32.08;18.52;;;;;;;25.64;48.97;101963.38;5138557;27;20039;-61
2021/06/05 17:15:16;;;;;;;34.03;19.80;;;;;;;25.61;48.60;101958.28;5138245;27;20031;-61
2021/06/05 17:17:43;;;;;;;33.22;18.90;;;;;;;25.57;48.78;101951.50;5136253;27;20445;-61
2021/06/05 17:20:09;;;;;;;32.47;18.08;;;;;;;25.58;48.68;101950.44;5136594;27;20399;-61
2021/06/05 17:22:35;;;;;;;27.05;17.10;;;;;;;25.61;48.57;101960.16;5136810;27;20098;-61
2021/06/05 17:25:00;;;;;;;29.25;17.17;;;;;;;25.57;48.85;101950.66;5137253;27;20374;-61
2021/06/05 17:27:26;;;;;;;25.95;17.23;;;;;;;25.59;48.73;101952.16;5119652;27;20357;-61
2021/06/05 17:29:51;;;;;;;29.90;18.65;;;;;;;25.60;48.91;101950.25;5136961;27;20035;-61
2021/06/05 17:32:17;;;;;;;28.52;17.70;;;;;;;25.59;48.70;101952.16;5137303;27;20400;-61
2021/06/05 17:34:46;;;;;;;31.85;16.75;;;;;;;25.55;48.61;101945.34;5137781;27;20019;-61
2021/06/05 17:37:11;;;;;;;29.52;17.45;;;;;;;25.59;48.56;101954.03;5137919;27;20096;-61
2021/06/05 17:39:37;;;;;;;26.58;16.15;;;;;;;25.62;48.23;101953.66;5136829;27;20452;-60
2021/06/05 17:42:03;;;;;;;28.95;18.33;;;;;;;25.61;48.73;101950.03;5136468;27;20062;-61
2021/06/05 17:44:28;;;;;;;32.13;17.02;;;;;;;25.57;48.65;101948.75;5137922;27;20107;-61
2021/06/05 17:46:54;;;;;;;27.00;15.82;;;;;;;25.63;48.58;101956.16;5136218;27;20483;-61
2021/06/05 17:49:19;;;;;;;27.42;16.23;;;;;;;25.61;48.50;101955.53;5135857;27;20034;-61
2021/06/05 17:51:44;;;;;;;25.00;15.43;;;;;;;25.58;48.75;101952.34;5136319;27;20031;-61
2021/06/05 17:54:14;;;;;;;30.00;15.32;;;;;;;25.60;48.12;101951.06;5135998;27;20031;-61
2021/06/05 17:56:40;;;;;;;26.38;15.88;;;;;;;25.57;48.30;101953.41;5136221;27;20027;-61
2021/06/05 17:59:05;;;;;;;23.27;15.35;;;;;;;25.58;48.45;101952.34;5135985;27;20050;-61
2021/06/05 18:01:32;;;;;;;24.80;15.55;;;;;;;25.59;47.97;101959.53;5135841;27;20110;-61
2021/06/05 18:04:01;;;;;;;24.40;14.95;;;;;;;25.62;48.37;101959.13;5135958;27;20034;-61
2021/06/05 18:06:27;;;;;;;26.38;15.43;;;;;;;25.62;48.35;101964.63;5136108;27;20026;-61
2021/06/05 18:08:53;;;;;;;21.02;14.40;;;;;;;25.64;47.99;101968.84;5135926;27;20023;-61
2021/06/05 18:11:23;;;;;;;25.25;14.50;;;;;;;25.63;48.39;101967.16;5136839;27;20027;-61
2021/06/05 18:13:49;;;;;;;24.25;14.95;;;;;;;25.66;48.02;101964.00;5137375;27;20015;-61
2021/06/05 18:16:17;;;;;;;25.50;16.15;;;;;;;25.69;47.89;101971.84;5136792;27;20034;-61
2021/06/05 18:18:43;;;;;;;23.05;14.70;;;;;;;25.71;48.21;101974.41;5136430;27;20114;-62
2021/06/05 18:21:11;;;;;;;22.50;14.60;;;;;;;25.69;48.19;101977.34;5137051;27;20023;-61
2021/06/05 18:23:37;;;;;;;24.17;16.13;;;;;;;25.71;47.68;101975.22;5137279;27;20034;-61
2021/06/05 18:26:03;;;;;;;22.35;13.93;;;;;;;25.71;47.53;101972.47;5135637;27;20027;-62
2021/06/05 18:28:29;;;;;;;28.40;15.43;;;;;;;25.73;48.01;101984.13;5135718;27;20023;-61
2021/06/05 18:30:55;;;;;;;21.83;14.45;;;;;;;25.72;48.09;101982.44;5136806;27;20027;-61
2021/06/05 18:33:30;;;;;;;24.02;14.57;;;;;;;25.69;47.82;101982.81;5118069;27;20426;-61
2021/06/05 18:35:56;;;;;;;24.48;14.48;;;;;;;25.69;47.64;101991.06;5135665;27;20456;-62
2021/06/05 18:38:26;;;;;;;30.67;16.00;;;;;;;25.63;47.89;101972.63;5135701;27;20023;-61
2021/06/05 18:40:53;;;;;;;26.35;16.50;;;;;;;25.62;47.44;101987.44;5135530;27;20483;-61
2021/06/05 18:43:18;;;;;;;27.40;15.98;;;;;;;25.59;47.85;101986.97;5135399;27;20015;-61
2021/06/05 18:45:46;;;;;;;27.10;16.55;;;;;;;25.56;47.44;101982.75;5136663;27;20102;-61
2021/06/05 18:48:13;;;;;;;25.98;14.90;;;;;;;25.57;47.52;101989.94;5135171;27;20025;-61
2021/06/05 18:50:41;;;;;;;26.02;15.45;;;;;;;25.54;47.46;101993.06;5135226;27;20015;-61
2021/06/05 18:53:08;;;;;;;25.98;15.43;;;;;;;25.54;47.58;101990.31;5134902;27;20020;-61
2021/06/05 18:55:38;;;;;;;20.92;13.75;;;;;;;25.51;47.64;101993.47;5135432;27;20019;-61
2021/06/05 18:58:05;;;;;;;24.25;14.05;;;;;;;25.47;47.16;102000.38;5135861;27;20023;-61
2021/06/05 19:00:32;;;;;;;24.98;13.68;;;;;;;25.40;47.51;101997.53;5134664;27;20042;-61
2021/06/05 19:02:59;;;;;;;23.65;13.80;;;;;;;25.36;47.56;102003.63;5135470;27;20035;-61
2021/06/05 19:05:31;;;;;;;23.42;13.18;;;;;;;25.32;47.06;102003.16;5136191;27;20467;-61
2021/06/05 19:07:58;;;;;;;26.42;14.73;;;;;;;25.33;47.37;102004.03;5136107;27;20409;-61
2021/06/05 19:10:24;;;;;;;19.08;12.93;;;;;;;25.29;47.52;102013.72;5134834;27;20072;-61
2021/06/05 19:12:51;;;;;;;20.67;12.07;;;;;;;25.24;47.35;102003.31;5135732;27;20494;-61
2021/06/05 19:15:17;;;;;;;18.48;11.98;;;;;;;25.19;46.87;102010.44;5135842;27;20147;-59
2021/06/05 19:17:44;;;;;;;20.77;12.77;;;;;;;25.08;47.36;102009.06;5135377;27;20051;-60
2021/06/05 19:20:13;;;;;;;22.52;12.98;;;;;;;25.09;47.17;102012.66;5134907;27;20042;-62
2021/06/05 19:22:40;;;;;;;24.55;13.23;;;;;;;25.03;46.91;102010.69;5134591;27;20383;-61
2021/06/05 19:25:07;;;;;;;21.15;12.93;;;;;;;25.01;47.07;102004.56;5134831;27;20076;-62
2021/06/05 19:27:33;;;;;;;21.77;12.95;;;;;;;24.95;47.69;102006.19;5135700;27;20115;-61
2021/06/05 19:29:58;;;;;;;23.10;13.75;;;;;;;24.92;47.79;102011.19;5135554;27;20059;-61
2021/06/05 19:32:24;;;;;;;22.98;14.05;;;;;;;24.88;47.13;102014.34;5135238;27;20031;-61
2021/06/05 19:34:49;;;;;;;20.75;13.05;;;;;;;24.83;47.64;102011.31;5135546;27;20596;-61
2021/06/05 19:37:14;;;;;;;24.98;13.05;;;;;;;24.82;47.40;102023.31;5135089;27;20098;-61
2021/06/05 19:39:40;;;;;;;21.48;14.25;;;;;;;24.80;47.34;102019.09;5135102;27;20027;-61